Map

Track Data

SID SEASON NUMBER BASIN SUBBASIN NAME ISO_TIME NATURE LAT LON WMO_WIND WMO_PRES WMO_AGENCY TRACK_TYPE DIST2LAND LANDFALL IFLAG USA_AGENCY USA_ATCF_ID USA_LAT USA_LON USA_RECORD USA_STATUS USA_WIND USA_PRES USA_SSHS USA_R34_NE USA_R34_SE USA_R34_SW USA_R34_NW USA_R50_NE USA_R50_SE USA_R50_SW USA_R50_NW USA_R64_NE USA_R64_SE USA_R64_SW USA_R64_NW USA_POCI USA_ROCI USA_RMW USA_EYE TOKYO_LAT TOKYO_LON TOKYO_GRADE TOKYO_WIND TOKYO_PRES TOKYO_R50_DIR TOKYO_R50_LONG TOKYO_R50_SHORT TOKYO_R30_DIR TOKYO_R30_LONG TOKYO_R30_SHORT TOKYO_LAND CMA_LAT CMA_LON CMA_CAT CMA_WIND CMA_PRES HKO_LAT HKO_LON HKO_CAT HKO_WIND HKO_PRES NEWDELHI_LAT NEWDELHI_LON NEWDELHI_GRADE NEWDELHI_WIND NEWDELHI_PRES NEWDELHI_CI NEWDELHI_DP NEWDELHI_POCI REUNION_LAT REUNION_LON REUNION_TYPE REUNION_WIND REUNION_PRES REUNION_TNUM REUNION_CI REUNION_RMW REUNION_R34_NE REUNION_R34_SE REUNION_R34_SW REUNION_R34_NW REUNION_R50_NE REUNION_R50_SE REUNION_R50_SW REUNION_R50_NW REUNION_R64_NE REUNION_R64_SE REUNION_R64_SW REUNION_R64_NW BOM_LAT BOM_LON BOM_TYPE BOM_WIND BOM_PRES BOM_TNUM BOM_CI BOM_RMW BOM_R34_NE BOM_R34_SE BOM_R34_SW BOM_R34_NW BOM_R50_NE BOM_R50_SE BOM_R50_SW BOM_R50_NW BOM_R64_NE BOM_R64_SE BOM_R64_SW BOM_R64_NW BOM_ROCI BOM_POCI BOM_EYE BOM_POS_METHOD BOM_PRES_METHOD NADI_LAT NADI_LON NADI_CAT NADI_WIND NADI_PRES WELLINGTON_LAT WELLINGTON_LON WELLINGTON_WIND WELLINGTON_PRES DS824_LAT DS824_LON DS824_STAGE DS824_WIND DS824_PRES TD9636_LAT TD9636_LON TD9636_STAGE TD9636_WIND TD9636_PRES TD9635_LAT TD9635_LON TD9635_WIND TD9635_PRES TD9635_ROCI NEUMANN_LAT NEUMANN_LON NEUMANN_CLASS NEUMANN_WIND NEUMANN_PRES MLC_LAT MLC_LON MLC_CLASS MLC_WIND MLC_PRES USA_GUST BOM_GUST BOM_GUST_PER REUNION_GUST REUNION_GUST_PER USA_SEAHGT USA_SEARAD_NE USA_SEARAD_SE USA_SEARAD_SW USA_SEARAD_NW STORM_SPEED STORM_DIR
1904163N13280 1904 14 NA CS NOT_NAMED 1904-06-10 12:00:00 TS 13.0000 -80.5000 30 hurdat_atl main 325 302 O_____________ hurdat_atl AL011904 13.0000 -80.5000 TD 30 -1 6 339
1904163N13280 1904 14 NA CS NOT_NAMED 1904-06-10 15:00:00 TS 13.2950 -80.6149 main 302 281 P_____________ AL011904 13.2950 -80.6149 TD 30 -1 6 342
1904163N13280 1904 14 NA CS NOT_NAMED 1904-06-10 18:00:00 TS 13.6000 -80.7000 30 hurdat_atl main 281 273 O_____________ hurdat_atl AL011904 13.6000 -80.7000 TD 30 -1 6 349
1904163N13280 1904 14 NA CS NOT_NAMED 1904-06-10 21:00:00 TS 13.9150 -80.7300 main 273 269 P_____________ AL011904 13.9150 -80.7300 TD 30 -1 6 1
1904163N13280 1904 14 NA CS NOT_NAMED 1904-06-11 00:00:00 TS 14.2000 -80.7000 30 hurdat_atl main 269 269 O_____________ hurdat_atl AL011904 14.2000 -80.7000 TD 30 -1 5 13
1904163N13280 1904 14 NA CS NOT_NAMED 1904-06-11 03:00:00 TS 14.4150 -80.6150 main 277 274 P_____________ AL011904 14.4150 -80.6150 TD 30 -1 4 26
1904163N13280 1904 14 NA CS NOT_NAMED 1904-06-11 06:00:00 TS 14.6000 -80.5000 30 hurdat_atl main 283 281 O_____________ hurdat_atl AL011904 14.6000 -80.5000 TD 30 -1 4 31
1904163N13280 1904 14 NA CS NOT_NAMED 1904-06-11 09:00:00 TS 14.7775 -80.3925 main 291 290 P_____________ AL011904 14.7775 -80.3925 TD 30 -1 4 26
1904163N13280 1904 14 NA CS NOT_NAMED 1904-06-11 12:00:00 TS 15.0000 -80.3000 30 hurdat_atl main 300 300 O_____________ hurdat_atl AL011904 15.0000 -80.3000 TD 30 -1 6 14
1904163N13280 1904 14 NA CS NOT_NAMED 1904-06-11 15:00:00 TS 15.3425 -80.2425 main 313 313 P_____________ AL011904 15.3425 -80.2425 TD 30 -1 7 8
1904163N13280 1904 14 NA CS NOT_NAMED 1904-06-11 18:00:00 TS 15.7000 -80.2000 30 hurdat_atl main 320 320 O_____________ hurdat_atl AL011904 15.7000 -80.2000 TD 30 -1 6 8
1904163N13280 1904 14 NA CS NOT_NAMED 1904-06-11 21:00:00 TS 15.9575 -80.1574 main 311 287 P_____________ AL011904 15.9575 -80.1574 TD 32 -1 5 11
1904163N13280 1904 14 NA CS NOT_NAMED 1904-06-12 00:00:00 TS 16.2000 -80.1000 35 hurdat_atl main 287 255 O_____________ hurdat_atl AL011904 16.2000 -80.1000 TS 35 0 6 15
1904163N13280 1904 14 NA CS NOT_NAMED 1904-06-12 03:00:00 TS 16.5000 -80.0075 main 255 223 P_____________ AL011904 16.5000 -80.0075 TS 37 0 6 18
1904163N13280 1904 14 NA CS NOT_NAMED 1904-06-12 06:00:00 TS 16.8000 -79.9000 40 hurdat_atl main 223 192 O_____________ hurdat_atl AL011904 16.8000 -79.9000 TS 40 0 6 19
1904163N13280 1904 14 NA CS NOT_NAMED 1904-06-12 09:00:00 TS 17.0650 -79.8000 main 192 170 P_____________ AL011904 17.0650 -79.8000 TS 42 0 5 21
1904163N13280 1904 14 NA CS NOT_NAMED 1904-06-12 12:00:00 TS 17.3000 -79.7000 45 hurdat_atl main 170 149 O_____________ hurdat_atl AL011904 17.3000 -79.7000 TS 45 0 5 23
1904163N13280 1904 14 NA CS NOT_NAMED 1904-06-12 15:00:00 TS 17.5075 -79.6074 main 149 129 P_____________ AL011904 17.5075 -79.6074 TS 47 0 4 25
1904163N13280 1904 14 NA CS NOT_NAMED 1904-06-12 18:00:00 TS 17.7000 -79.5000 50 hurdat_atl main 129 110 O_____________ hurdat_atl AL011904 17.7000 -79.5000 TS 50 0 5 31
1904163N13280 1904 14 NA CS NOT_NAMED 1904-06-12 21:00:00 TS 17.9075 -79.3575 main 110 85 P_____________ AL011904 17.9075 -79.3575 TS 52 0 5 35
1904163N13280 1904 14 NA CS NOT_NAMED 1904-06-13 00:00:00 TS 18.1000 -79.2000 55 hurdat_atl main 85 73 O_____________ hurdat_atl AL011904 18.1000 -79.2000 TS 55 0 5 39
1904163N13280 1904 14 NA CS NOT_NAMED 1904-06-13 03:00:00 TS 18.2575 -79.0574 main 74 57 P_____________ AL011904 18.2575 -79.0574 TS 57 0 4 43
1904163N13280 1904 14 NA CS NOT_NAMED 1904-06-13 06:00:00 TS 18.4000 -78.9000 60 hurdat_atl main 57 43 O_____________ hurdat_atl AL011904 18.4000 -78.9000 TS 60 0 4 49
1904163N13280 1904 14 NA CS NOT_NAMED 1904-06-13 09:00:00 TS 18.5199 -78.7372 main 43 38 P_____________ AL011904 18.5199 -78.7372 TS 62 0 5 52
1904163N13280 1904 14 NA CS NOT_NAMED 1904-06-13 12:00:00 TS 18.7000 -78.5000 65 hurdat_atl main 39 35 O_____________ hurdat_atl AL011904 18.7000 -78.5000 HU 65 1 7 49
1904163N13280 1904 14 NA CS NOT_NAMED 1904-06-13 15:00:00 TS 19.0050 -78.1375 main 67 44 P_____________ AL011904 19.0050 -78.1375 HU 67 1 10 47
1904163N13280 1904 14 NA CS NOT_NAMED 1904-06-13 18:00:00 TS 19.4000 -77.7000 70 hurdat_atl main 44 11 O_____________ hurdat_atl AL011904 19.4000 -77.7000 HU 70 1 12 45
1904163N13280 1904 14 NA CS NOT_NAMED 1904-06-13 21:00:00 TS 19.8425 -77.2500 main 11 0 P_____________ AL011904 19.8425 -77.2500 HU 62 0 12 43
1904163N13280 1904 14 NA NA NOT_NAMED 1904-06-14 00:00:00 TS 20.3000 -76.8000 55 hurdat_atl main 0 0 O_____________ hurdat_atl AL011904 20.3000 -76.8000 TS 55 0 12 43
1904163N13280 1904 14 NA NA NOT_NAMED 1904-06-14 03:00:00 TS 20.6999 -76.3847 main 0 0 P_____________ AL011904 20.6999 -76.3847 TS 47 0 11 43
1904163N13280 1904 14 NA NA NOT_NAMED 1904-06-14 06:00:00 TS 21.1000 -76.0000 40 hurdat_atl main 0 0 O_____________ hurdat_atl AL011904 21.1000 -76.0000 TS 40 0 11 39
1904163N13280 1904 14 NA NA NOT_NAMED 1904-06-14 09:00:00 TS 21.5424 -75.6423 main 55 55 P_____________ AL011904 21.5424 -75.6423 TS 37 0 11 36
1904163N13280 1904 14 NA NA NOT_NAMED 1904-06-14 12:00:00 TS 22.0000 -75.3000 35 hurdat_atl main 116 116 O_____________ hurdat_atl AL011904 22.0000 -75.3000 TS 35 0 11 35
1904163N13280 1904 14 NA NA NOT_NAMED 1904-06-14 15:00:00 TS 22.4527 -74.9530 main 178 178 P_____________ AL011904 22.4527 -74.9530 TS 30 -1 11 36
1904163N13280 1904 14 NA NA NOT_NAMED 1904-06-14 18:00:00 TS 22.9000 -74.6000 25 hurdat_atl main 221 O_____________ hurdat_atl AL011904 22.9000 -74.6000 TD 25 -1 11 36

About IBTrACS Database

This database is a web-friendly format of International Best Track Archive for Climate Stewardship (IBTrACS), a global best track data archive curated by NOAA dating back to 1842.

Updated: 2021-10-21